QTR17G OTHH-FAOR
Flight info
| Callsign | QTR17G |
|---|---|
| Flight time | N/A |
| Altitude | 28000 |
| Route | DATRI L564 BAT/N0508F310 DCT KUTNA DCT MIGMA DCT GOBRO L425 ITUVO/N0510F300 B400 RAPDO/N0505F320 B400 VEDET UL437 DV UM310 BOTEN/N0497F340 UM310 VBR UM307 EPSEK UZ33 NESAG UZ7 OKPIT OKPIT1D |
| Aircraft | B77L/H-SDE1E2E3FGHIJ2J3J4J5M1RWXY/LB1D1 |
Departure
| Time | 2026-05-05 11:04 |
|---|---|
| Airport | Hamad International Airport (OTHH) |
Arrival
| Time | N/A |
|---|---|
| Airport | O.R. Tambo International Airport (FAOR) |
| Time | Latitude | Longitude | Altitude | Speed | Heading |
|---|---|---|---|---|---|
| 2026-05-05 10:48 | 25.27976 | 51.61086 | 30 ft | 0 kts | 248° |
| 2026-05-05 10:51 | 25.27979 | 51.61095 | 26 ft | 2 kts | 246° |
| 2026-05-05 10:51 | 25.27986 | 51.61112 | 32 ft | 2 kts | 246° |
| 2026-05-05 10:51 | 25.27992 | 51.61129 | 32 ft | 2 kts | 245° |
| 2026-05-05 10:52 | 25.28000 | 51.61145 | 32 ft | 2 kts | 242° |
| 2026-05-05 10:52 | 25.28008 | 51.61161 | 32 ft | 2 kts | 234° |
| 2026-05-05 10:52 | 25.28019 | 51.61175 | 32 ft | 2 kts | 210° |
| 2026-05-05 10:52 | 25.28034 | 51.61178 | 28 ft | 2 kts | 161° |
| 2026-05-05 10:53 | 25.28038 | 51.61177 | 29 ft | 0 kts | 159° |
| 2026-05-05 10:56 | 25.28014 | 51.61187 | 32 ft | 13 kts | 159° |
| 2026-05-05 10:56 | 25.27895 | 51.61239 | 31 ft | 19 kts | 158° |
| 2026-05-05 10:56 | 25.27771 | 51.61295 | 28 ft | 19 kts | 154° |
| 2026-05-05 10:57 | 25.27739 | 51.61383 | 29 ft | 16 kts | 106° |
| 2026-05-05 10:57 | 25.27613 | 51.61471 | 31 ft | 23 kts | 158° |
| 2026-05-05 10:57 | 25.27463 | 51.61539 | 30 ft | 23 kts | 158° |
| 2026-05-05 10:57 | 25.27312 | 51.61605 | 26 ft | 23 kts | 159° |
| 2026-05-05 10:58 | 25.27158 | 51.61671 | 29 ft | 24 kts | 159° |
| 2026-05-05 10:58 | 25.27004 | 51.61738 | 26 ft | 24 kts | 156° |
| 2026-05-05 10:58 | 25.26851 | 51.61809 | 28 ft | 25 kts | 158° |
| 2026-05-05 10:58 | 25.26663 | 51.61891 | 29 ft | 27 kts | 158° |
| 2026-05-05 10:59 | 25.26512 | 51.61959 | 31 ft | 23 kts | 158° |
| 2026-05-05 10:59 | 25.26363 | 51.62024 | 27 ft | 23 kts | 158° |
| 2026-05-05 10:59 | 25.26213 | 51.62089 | 27 ft | 23 kts | 158° |
| 2026-05-05 10:59 | 25.26049 | 51.62162 | 27 ft | 28 kts | 158° |
| 2026-05-05 11:00 | 25.25868 | 51.62242 | 27 ft | 28 kts | 158° |
| 2026-05-05 11:00 | 25.25693 | 51.62320 | 26 ft | 27 kts | 158° |
| 2026-05-05 11:00 | 25.25534 | 51.62390 | 26 ft | 21 kts | 158° |
| 2026-05-05 11:00 | 25.25480 | 51.62471 | 26 ft | 13 kts | 77° |
| 2026-05-05 11:01 | 25.25504 | 51.62552 | 26 ft | 7 kts | 67° |
| 2026-05-05 11:01 | 25.25504 | 51.62554 | 26 ft | 0 kts | 67° |
| 2026-05-05 11:02 | 25.25505 | 51.62556 | 26 ft | 2 kts | 67° |
| 2026-05-05 11:02 | 25.25527 | 51.62606 | 27 ft | 12 kts | 58° |
| 2026-05-05 11:02 | 25.25590 | 51.62657 | 27 ft | 12 kts | 14° |
| 2026-05-05 11:03 | 25.25646 | 51.62649 | 27 ft | 0 kts | 342° |
| 2026-05-05 11:03 | 25.25710 | 51.62624 | 26 ft | 37 kts | 338° |
| 2026-05-05 11:03 | 25.26203 | 51.62406 | 27 ft | 114 kts | 338° |
| 2026-05-05 11:04 | 25.27170 | 51.61978 | 28 ft | 184 kts | 338° |
| 2026-05-05 11:04 | 25.28506 | 51.61399 | 207 ft | 216 kts | 342° |
| 2026-05-05 11:04 | 25.29886 | 51.60806 | 1019 ft | 211 kts | 339° |
| 2026-05-05 11:04 | 25.31251 | 51.60265 | 1737 ft | 208 kts | 342° |
| 2026-05-05 11:05 | 25.32650 | 51.59713 | 2023 ft | 223 kts | 338° |
| 2026-05-05 11:05 | 25.34211 | 51.59273 | 2109 ft | 242 kts | 4° |
| 2026-05-05 11:05 | 25.35860 | 51.59722 | 2311 ft | 254 kts | 17° |
| 2026-05-05 11:05 | 25.37566 | 51.60307 | 2833 ft | 259 kts | 15° |
| 2026-05-05 11:06 | 25.39307 | 51.60863 | 3405 ft | 262 kts | 15° |
| 2026-05-05 11:06 | 25.41078 | 51.61412 | 3664 ft | 261 kts | 15° |
| 2026-05-05 11:06 | 25.42849 | 51.61953 | 3792 ft | 268 kts | 15° |
| 2026-05-05 11:06 | 25.44622 | 51.62490 | 3771 ft | 258 kts | 15° |
| 2026-05-05 11:07 | 25.46349 | 51.63011 | 3906 ft | 258 kts | 15° |
| 2026-05-05 11:07 | 25.48104 | 51.63505 | 4408 ft | 262 kts | 12° |
| 2026-05-05 11:07 | 25.49899 | 51.63934 | 4946 ft | 266 kts | 12° |
| 2026-05-05 11:07 | 25.51712 | 51.64359 | 5568 ft | 266 kts | 12° |
| 2026-05-05 11:08 | 25.53535 | 51.64792 | 6148 ft | 269 kts | 12° |
| 2026-05-05 11:08 | 25.55378 | 51.65235 | 6652 ft | 274 kts | 12° |
| 2026-05-05 11:08 | 25.57235 | 51.65683 | 6761 ft | 277 kts | 12° |
| 2026-05-05 11:08 | 25.59017 | 51.66113 | 6758 ft | 273 kts | 12° |
| 2026-05-05 11:09 | 25.60880 | 51.66524 | 6763 ft | 273 kts | 3° |
| 2026-05-05 11:09 | 25.62728 | 51.66140 | 6762 ft | 275 kts | 330° |
| 2026-05-05 11:09 | 25.64137 | 51.64710 | 6794 ft | 279 kts | 302° |
| 2026-05-05 11:09 | 25.64805 | 51.62692 | 7183 ft | 285 kts | 277° |
| 2026-05-05 11:10 | 25.64656 | 51.60484 | 7689 ft | 291 kts | 252° |
| 2026-05-05 11:10 | 25.63653 | 51.58542 | 8268 ft | 295 kts | 226° |
| 2026-05-05 11:10 | 25.61953 | 51.57273 | 8856 ft | 299 kts | 200° |
| 2026-05-05 11:10 | 25.59900 | 51.56846 | 9382 ft | 304 kts | 184° |
| 2026-05-05 11:11 | 25.57774 | 51.56793 | 9890 ft | 308 kts | 182° |
| 2026-05-05 11:11 | 25.55615 | 51.56756 | 10400 ft | 311 kts | 184° |
| 2026-05-05 11:11 | 25.53442 | 51.56542 | 10888 ft | 315 kts | 191° |
| 2026-05-05 11:11 | 25.51317 | 51.55969 | 11425 ft | 315 kts | 203° |
| 2026-05-05 11:12 | 25.49367 | 51.54895 | 11958 ft | 313 kts | 218° |
| 2026-05-05 11:12 | 25.47793 | 51.53248 | 12456 ft | 312 kts | 238° |
| 2026-05-05 11:12 | 25.46887 | 51.51104 | 12926 ft | 309 kts | 262° |
| 2026-05-05 11:12 | 25.46954 | 51.48771 | 13471 ft | 304 kts | 291° |
| 2026-05-05 11:13 | 25.48126 | 51.46871 | 13920 ft | 304 kts | 322° |
| 2026-05-05 11:13 | 25.50025 | 51.45811 | 13948 ft | 327 kts | 346° |
| 2026-05-05 11:13 | 25.52396 | 51.45822 | 13742 ft | 360 kts | 13° |
| 2026-05-05 11:13 | 25.54786 | 51.46975 | 13565 ft | 390 kts | 31° |
| 2026-05-05 11:14 | 25.56802 | 51.49038 | 13438 ft | 399 kts | 52° |
| 2026-05-05 11:14 | 25.58070 | 51.51796 | 13680 ft | 410 kts | 72° |
| 2026-05-05 11:14 | 25.58494 | 51.54935 | 14134 ft | 417 kts | 90° |
| 2026-05-05 11:14 | 25.58037 | 51.58115 | 14689 ft | 420 kts | 109° |
| 2026-05-05 11:15 | 25.56725 | 51.60995 | 15230 ft | 422 kts | 127° |
| 2026-05-05 11:15 | 25.54646 | 51.63263 | 15769 ft | 421 kts | 148° |
| 2026-05-05 11:15 | 25.51997 | 51.64596 | 16297 ft | 419 kts | 168° |
| 2026-05-05 11:15 | 25.49112 | 51.64916 | 16836 ft | 418 kts | 183° |
| 2026-05-05 11:16 | 25.46218 | 51.64723 | 17348 ft | 419 kts | 187° |
| 2026-05-05 11:16 | 25.43302 | 51.64385 | 17876 ft | 421 kts | 188° |
| 2026-05-05 11:16 | 25.40385 | 51.64006 | 18358 ft | 423 kts | 188° |
| 2026-05-05 11:16 | 25.37451 | 51.63634 | 18775 ft | 426 kts | 188° |
| 2026-05-05 11:17 | 25.34490 | 51.63282 | 19204 ft | 429 kts | 187° |
| 2026-05-05 11:17 | 25.31509 | 51.62951 | 19624 ft | 433 kts | 187° |
| 2026-05-05 11:17 | 25.28498 | 51.62634 | 20039 ft | 435 kts | 187° |
| 2026-05-05 11:17 | 25.25472 | 51.62325 | 20459 ft | 438 kts | 187° |
| 2026-05-05 11:18 | 25.22421 | 51.62019 | 20881 ft | 441 kts | 187° |
| 2026-05-05 11:18 | 25.19389 | 51.61717 | 21287 ft | 444 kts | 187° |
| 2026-05-05 11:18 | 25.16300 | 51.61409 | 21691 ft | 447 kts | 187° |
| 2026-05-05 11:18 | 25.13194 | 51.61099 | 22089 ft | 449 kts | 187° |
| 2026-05-05 11:19 | 25.10068 | 51.60787 | 22475 ft | 452 kts | 187° |
| 2026-05-05 11:19 | 25.06920 | 51.60472 | 22857 ft | 455 kts | 187° |
| 2026-05-05 11:19 | 25.03745 | 51.60155 | 23231 ft | 458 kts | 187° |
| 2026-05-05 11:19 | 25.00561 | 51.59837 | 23576 ft | 460 kts | 187° |
| 2026-05-05 11:20 | 24.97367 | 51.59517 | 23913 ft | 462 kts | 187° |
| 2026-05-05 11:20 | 24.94160 | 51.59197 | 24263 ft | 463 kts | 188° |
| 2026-05-05 11:20 | 24.90946 | 51.58877 | 24607 ft | 465 kts | 188° |
| 2026-05-05 11:20 | 24.87756 | 51.58559 | 24922 ft | 466 kts | 188° |
| 2026-05-05 11:21 | 24.84512 | 51.58235 | 25230 ft | 468 kts | 188° |
| 2026-05-05 11:21 | 24.81264 | 51.57911 | 25559 ft | 470 kts | 188° |
| 2026-05-05 11:21 | 24.77999 | 51.57586 | 25858 ft | 471 kts | 188° |
| 2026-05-05 11:21 | 24.74727 | 51.57260 | 26166 ft | 473 kts | 188° |
| 2026-05-05 11:22 | 24.71439 | 51.56912 | 26467 ft | 474 kts | 190° |
| 2026-05-05 11:22 | 24.68187 | 51.56301 | 26750 ft | 473 kts | 195° |
| 2026-05-05 11:22 | 24.64966 | 51.55520 | 27053 ft | 475 kts | 196° |
| 2026-05-05 11:22 | 24.61730 | 51.54723 | 27343 ft | 476 kts | 196° |
| 2026-05-05 11:23 | 24.58531 | 51.53940 | 27636 ft | 478 kts | 196° |
| 2026-05-05 11:23 | 24.55271 | 51.53152 | 27702 ft | 482 kts | 196° |
| 2026-05-05 11:23 | 24.51987 | 51.52368 | 27748 ft | 482 kts | 195° |
| 2026-05-05 11:23 | 24.48710 | 51.51593 | 27758 ft | 480 kts | 195° |
| 2026-05-05 11:24 | 24.45450 | 51.50824 | 27756 ft | 479 kts | 195° |
| 2026-05-05 11:24 | 24.42196 | 51.50058 | 27761 ft | 478 kts | 195° |
| 2026-05-05 11:24 | 24.38942 | 51.49290 | 27761 ft | 477 kts | 195° |
| 2026-05-05 11:24 | 24.35696 | 51.48524 | 27765 ft | 477 kts | 195° |
| 2026-05-05 11:25 | 24.32446 | 51.47757 | 27760 ft | 478 kts | 195° |
| 2026-05-05 11:25 | 24.29198 | 51.46990 | 27761 ft | 478 kts | 195° |
| 2026-05-05 11:25 | 24.25940 | 51.46222 | 27763 ft | 479 kts | 195° |
| 2026-05-05 11:25 | 24.22662 | 51.45536 | 27759 ft | 481 kts | 191° |
| 2026-05-05 11:26 | 24.19319 | 51.45155 | 27757 ft | 484 kts | 186° |
| 2026-05-05 11:26 | 24.15943 | 51.45133 | 27763 ft | 486 kts | 182° |
| 2026-05-05 11:26 | 24.12600 | 51.45184 | 27764 ft | 487 kts | 182° |
| 2026-05-05 11:26 | 24.09211 | 51.45235 | 27759 ft | 487 kts | 182° |
| 2026-05-05 11:27 | 24.05818 | 51.45279 | 27755 ft | 488 kts | 182° |
| 2026-05-05 11:27 | 24.02417 | 51.45314 | 27754 ft | 488 kts | 183° |
| 2026-05-05 11:27 | 23.99025 | 51.45341 | 27754 ft | 488 kts | 183° |
| 2026-05-05 11:27 | 23.95626 | 51.45363 | 27753 ft | 488 kts | 183° |
| 2026-05-05 11:28 | 23.92232 | 51.45383 | 27747 ft | 488 kts | 183° |
| 2026-05-05 11:28 | 23.88836 | 51.45402 | 27791 ft | 489 kts | 183° |
| 2026-05-05 11:28 | 23.85423 | 51.45421 | 28037 ft | 491 kts | 183° |
| 2026-05-05 11:28 | 23.82003 | 51.45441 | 28362 ft | 491 kts | 183° |
| 2026-05-05 11:29 | 23.78581 | 51.45462 | 28647 ft | 492 kts | 183° |
| 2026-05-05 11:29 | 23.75153 | 51.45482 | 28879 ft | 494 kts | 183° |
| 2026-05-05 11:29 | 23.71710 | 51.45503 | 29086 ft | 496 kts | 183° |
| 2026-05-05 11:29 | 23.68247 | 51.45524 | 29293 ft | 498 kts | 183° |
| 2026-05-05 11:30 | 23.64778 | 51.45545 | 29493 ft | 499 kts | 183° |
| 2026-05-05 11:30 | 23.61300 | 51.45566 | 29662 ft | 501 kts | 183° |
| 2026-05-05 11:30 | 23.57855 | 51.45586 | 29714 ft | 502 kts | 183° |
| 2026-05-05 11:31 | 23.50887 | 51.45630 | 29717 ft | 499 kts | 183° |
| 2026-05-05 11:31 | 23.43955 | 51.45673 | 29731 ft | 498 kts | 183° |
| 2026-05-05 11:32 | 23.37025 | 51.45714 | 29732 ft | 498 kts | 183° |
| 2026-05-05 11:32 | 23.30085 | 51.45756 | 29729 ft | 498 kts | 183° |
| 2026-05-05 11:33 | 23.23138 | 51.45798 | 29728 ft | 499 kts | 183° |
| 2026-05-05 11:33 | 23.16158 | 51.45884 | 29932 ft | 503 kts | 182° |
| 2026-05-05 11:33 | 23.12661 | 51.45946 | 30208 ft | 501 kts | 182° |
| 2026-05-05 11:34 | 23.09179 | 51.46008 | 30533 ft | 499 kts | 182° |
| 2026-05-05 11:34 | 23.05712 | 51.46067 | 30665 ft | 499 kts | 182° |
| 2026-05-05 11:34 | 23.02232 | 51.46122 | 30694 ft | 499 kts | 182° |
| 2026-05-05 11:35 | 22.95336 | 51.46229 | 30710 ft | 498 kts | 182° |
| 2026-05-05 11:35 | 22.88413 | 51.46420 | 30712 ft | 499 kts | 176° |
| 2026-05-05 11:36 | 22.81709 | 51.48478 | 30730 ft | 507 kts | 158° |
| 2026-05-05 11:36 | 22.75697 | 51.52526 | 30732 ft | 511 kts | 148° |
| 2026-05-05 11:37 | 22.69872 | 51.56961 | 30725 ft | 513 kts | 148° |
| 2026-05-05 11:37 | 22.63993 | 51.61389 | 30722 ft | 514 kts | 148° |
| 2026-05-05 11:38 | 22.58083 | 51.65767 | 30721 ft | 515 kts | 148° |
| 2026-05-05 11:38 | 22.52186 | 51.70103 | 30721 ft | 516 kts | 148° |
| 2026-05-05 11:39 | 22.46249 | 51.74464 | 30715 ft | 516 kts | 148° |
| 2026-05-05 11:39 | 22.40306 | 51.78829 | 30715 ft | 516 kts | 148° |
| 2026-05-05 11:40 | 22.34374 | 51.83184 | 30718 ft | 515 kts | 148° |
| 2026-05-05 11:40 | 22.28453 | 51.87526 | 30713 ft | 514 kts | 148° |
| 2026-05-05 11:41 | 22.22529 | 51.91866 | 30712 ft | 513 kts | 148° |
| 2026-05-05 11:41 | 22.16659 | 51.96161 | 30716 ft | 513 kts | 148° |
| 2026-05-05 11:42 | 22.10753 | 52.00478 | 30712 ft | 513 kts | 148° |
| 2026-05-05 11:42 | 22.04847 | 52.04791 | 30712 ft | 513 kts | 148° |
| 2026-05-05 11:43 | 21.98937 | 52.09103 | 30711 ft | 513 kts | 148° |
| 2026-05-05 11:43 | 21.93020 | 52.13415 | 30709 ft | 513 kts | 148° |
| 2026-05-05 11:44 | 21.88094 | 52.17001 | 30708 ft | 514 kts | 148° |
| 2026-05-05 11:44 | 21.82169 | 52.21311 | 30711 ft | 514 kts | 148° |
| 2026-05-05 11:45 | 21.76241 | 52.25618 | 30709 ft | 515 kts | 148° |
| 2026-05-05 11:45 | 21.70301 | 52.29931 | 30709 ft | 515 kts | 148° |
| 2026-05-05 11:46 | 21.64355 | 52.34242 | 30708 ft | 515 kts | 148° |
| 2026-05-05 11:46 | 21.58400 | 52.38557 | 30710 ft | 516 kts | 148° |
| 2026-05-05 11:47 | 21.52449 | 52.42864 | 30708 ft | 516 kts | 148° |
| 2026-05-05 11:47 | 21.46488 | 52.47173 | 30709 ft | 516 kts | 148° |
| 2026-05-05 11:48 | 21.37590 | 52.53599 | 30708 ft | 516 kts | 148° |
| 2026-05-05 11:48 | 21.31633 | 52.57895 | 30711 ft | 516 kts | 148° |
| 2026-05-05 11:49 | 21.25669 | 52.62192 | 30708 ft | 516 kts | 148° |
| 2026-05-05 11:49 | 21.19702 | 52.66486 | 30704 ft | 516 kts | 148° |
| 2026-05-05 11:50 | 21.13738 | 52.70775 | 30707 ft | 516 kts | 148° |
| 2026-05-05 11:50 | 21.07809 | 52.75035 | 30707 ft | 516 kts | 148° |
| 2026-05-05 11:51 | 21.01846 | 52.79314 | 30705 ft | 516 kts | 148° |
| 2026-05-05 11:51 | 20.95888 | 52.83585 | 30704 ft | 515 kts | 148° |
| 2026-05-05 11:52 | 20.89928 | 52.87854 | 30710 ft | 515 kts | 148° |
| 2026-05-05 11:52 | 20.83964 | 52.92122 | 30709 ft | 515 kts | 148° |
| 2026-05-05 11:53 | 20.78008 | 52.96379 | 30708 ft | 515 kts | 148° |
| 2026-05-05 11:53 | 20.72051 | 53.00634 | 30708 ft | 514 kts | 148° |
| 2026-05-05 11:54 | 20.66103 | 53.04877 | 30711 ft | 514 kts | 148° |
| 2026-05-05 11:54 | 20.60192 | 53.09091 | 30703 ft | 514 kts | 148° |
| 2026-05-05 11:55 | 20.54245 | 53.13326 | 30703 ft | 513 kts | 148° |
| 2026-05-05 11:55 | 20.48299 | 53.17557 | 30705 ft | 513 kts | 148° |
| 2026-05-05 11:56 | 20.42361 | 53.21777 | 30704 ft | 513 kts | 148° |
| 2026-05-05 11:56 | 20.36418 | 53.25997 | 30708 ft | 512 kts | 148° |
| 2026-05-05 11:57 | 20.30526 | 53.30177 | 30707 ft | 512 kts | 148° |
| 2026-05-05 11:57 | 20.24576 | 53.34394 | 30707 ft | 512 kts | 148° |
| 2026-05-05 11:58 | 20.18638 | 53.38599 | 30708 ft | 512 kts | 148° |
| 2026-05-05 11:58 | 20.12704 | 53.42798 | 30706 ft | 512 kts | 148° |
| 2026-05-05 11:59 | 20.06760 | 53.47000 | 30707 ft | 512 kts | 148° |
| 2026-05-05 11:59 | 20.00820 | 53.51193 | 30706 ft | 512 kts | 148° |
| 2026-05-05 12:00 | 19.94915 | 53.55360 | 30704 ft | 512 kts | 148° |
| 2026-05-05 12:00 | 19.88965 | 53.59554 | 30701 ft | 513 kts | 148° |
| 2026-05-05 12:01 | 19.83019 | 53.63742 | 30702 ft | 512 kts | 148° |
| 2026-05-05 12:01 | 19.77068 | 53.67930 | 30710 ft | 512 kts | 148° |
| 2026-05-05 12:02 | 19.71124 | 53.72109 | 30705 ft | 512 kts | 148° |
| 2026-05-05 12:02 | 19.65188 | 53.76295 | 30705 ft | 511 kts | 146° |
| 2026-05-05 12:03 | 19.62517 | 53.78779 | 30703 ft | 514 kts | 132° |
| 2026-05-05 12:03 | 19.60411 | 53.81785 | 30716 ft | 515 kts | 122° |
| 2026-05-05 12:03 | 19.58836 | 53.85199 | 30718 ft | 517 kts | 109° |
| 2026-05-05 12:03 | 19.57846 | 53.88862 | 30725 ft | 517 kts | 105° |
| 2026-05-05 12:04 | 19.55988 | 53.96245 | 30714 ft | 519 kts | 107° |